sensor_id;sensor_type;location;lat;lon;timestamp;P1;durP1;ratioP1;P2;durP2;ratioP2
72601;SDS011;60644;55.858;37.390;2022-09-09T00:00:24;4.47;;;1.02;;
72601;SDS011;60644;55.858;37.390;2022-09-09T00:03:34;4.35;;;1.30;;
72601;SDS011;60644;55.858;37.390;2022-09-09T00:08:12;4.43;;;1.10;;
72601;SDS011;60644;55.858;37.390;2022-09-09T00:10:50;6.00;;;0.98;;
72601;SDS011;60644;55.858;37.390;2022-09-09T00:15:56;3.95;;;1.30;;
72601;SDS011;60644;55.858;37.390;2022-09-09T00:18:27;2.97;;;0.80;;
72601;SDS011;60644;55.858;37.390;2022-09-09T00:21:11;4.93;;;1.13;;
72601;SDS011;60644;55.858;37.390;2022-09-09T00:23:44;6.15;;;1.42;;
72601;SDS011;60644;55.858;37.390;2022-09-09T00:29:05;4.85;;;1.27;;
72601;SDS011;60644;55.858;37.390;2022-09-09T00:31:44;4.93;;;0.93;;
72601;SDS011;60644;55.858;37.390;2022-09-09T00:36:41;4.75;;;1.08;;
72601;SDS011;60644;55.858;37.390;2022-09-09T00:39:11;4.63;;;1.23;;
72601;SDS011;60644;55.858;37.390;2022-09-09T00:41:58;4.63;;;1.00;;
72601;SDS011;60644;55.858;37.390;2022-09-09T00:44:31;2.93;;;0.70;;
72601;SDS011;60644;55.858;37.390;2022-09-09T00:57:52;3.67;;;0.98;;
72601;SDS011;60644;55.858;37.390;2022-09-09T01:08:01;4.70;;;1.00;;
72601;SDS011;60644;55.858;37.390;2022-09-09T01:10:36;4.03;;;0.90;;
72601;SDS011;60644;55.858;37.390;2022-09-09T01:13:14;4.85;;;1.10;;
72601;SDS011;60644;55.858;37.390;2022-09-09T01:15:48;3.15;;;0.52;;
72601;SDS011;60644;55.858;37.390;2022-09-09T01:18:16;4.30;;;0.80;;
72601;SDS011;60644;55.858;37.390;2022-09-09T01:20:48;3.42;;;0.85;;
72601;SDS011;60644;55.858;37.390;2022-09-09T01:26:35;4.95;;;0.90;;
72601;SDS011;60644;55.858;37.390;2022-09-09T01:29:10;2.78;;;0.75;;
72601;SDS011;60644;55.858;37.390;2022-09-09T01:34:23;2.85;;;0.60;;
72601;SDS011;60644;55.858;37.390;2022-09-09T01:37:11;4.17;;;0.97;;
72601;SDS011;60644;55.858;37.390;2022-09-09T01:39:40;4.00;;;0.95;;
72601;SDS011;60644;55.858;37.390;2022-09-09T01:42:12;3.97;;;0.90;;
72601;SDS011;60644;55.858;37.390;2022-09-09T01:44:41;3.70;;;0.70;;
72601;SDS011;60644;55.858;37.390;2022-09-09T01:47:07;3.55;;;0.80;;
72601;SDS011;60644;55.858;37.390;2022-09-09T01:49:40;3.07;;;0.67;;
72601;SDS011;60644;55.858;37.390;2022-09-09T01:52:16;3.10;;;0.70;;
72601;SDS011;60644;55.858;37.390;2022-09-09T01:54:42;4.70;;;1.00;;
72601;SDS011;60644;55.858;37.390;2022-09-09T01:57:33;4.97;;;0.80;;
72601;SDS011;60644;55.858;37.390;2022-09-09T02:00:14;4.05;;;0.80;;
72601;SDS011;60644;55.858;37.390;2022-09-09T02:02:47;4.47;;;0.80;;
72601;SDS011;60644;55.858;37.390;2022-09-09T02:08:23;4.38;;;0.90;;
72601;SDS011;60644;55.858;37.390;2022-09-09T02:13:42;4.43;;;0.95;;
72601;SDS011;60644;55.858;37.390;2022-09-09T02:19:18;3.08;;;0.60;;
72601;SDS011;60644;55.858;37.390;2022-09-09T02:22:07;4.25;;;1.15;;
72601;SDS011;60644;55.858;37.390;2022-09-09T02:24:34;4.93;;;0.80;;
72601;SDS011;60644;55.858;37.390;2022-09-09T02:27:11;3.85;;;0.90;;
72601;SDS011;60644;55.858;37.390;2022-09-09T02:29:40;4.32;;;1.00;;
72601;SDS011;60644;55.858;37.390;2022-09-09T02:32:11;3.08;;;0.75;;
72601;SDS011;60644;55.858;37.390;2022-09-09T02:34:42;3.22;;;0.80;;
72601;SDS011;60644;55.858;37.390;2022-09-09T02:37:10;6.07;;;0.73;;
72601;SDS011;60644;55.858;37.390;2022-09-09T02:39:41;3.35;;;0.82;;
72601;SDS011;60644;55.858;37.390;2022-09-09T02:42:12;4.10;;;0.70;;
72601;SDS011;60644;55.858;37.390;2022-09-09T02:44:41;4.05;;;0.95;;
72601;SDS011;60644;55.858;37.390;2022-09-09T02:58:02;2.53;;;0.50;;
72601;SDS011;60644;55.858;37.390;2022-09-09T03:00:33;3.15;;;0.80;;
72601;SDS011;60644;55.858;37.390;2022-09-09T03:03:03;3.75;;;0.70;;
72601;SDS011;60644;55.858;37.390;2022-09-09T03:05:32;2.90;;;0.60;;
72601;SDS011;60644;55.858;37.390;2022-09-09T03:07:58;2.93;;;0.50;;
72601;SDS011;60644;55.858;37.390;2022-09-09T03:10:24;3.60;;;0.80;;
72601;SDS011;60644;55.858;37.390;2022-09-09T03:12:50;3.47;;;0.77;;
72601;SDS011;60644;55.858;37.390;2022-09-09T03:15:17;3.55;;;0.88;;
72601;SDS011;60644;55.858;37.390;2022-09-09T03:17:44;3.58;;;0.63;;
72601;SDS011;60644;55.858;37.390;2022-09-09T03:20:10;2.70;;;0.60;;
72601;SDS011;60644;55.858;37.390;2022-09-09T03:22:37;4.10;;;0.80;;
72601;SDS011;60644;55.858;37.390;2022-09-09T03:25:03;4.18;;;0.98;;
72601;SDS011;60644;55.858;37.390;2022-09-09T03:27:32;3.92;;;0.90;;
72601;SDS011;60644;55.858;37.390;2022-09-09T03:29:59;4.00;;;0.80;;
72601;SDS011;60644;55.858;37.390;2022-09-09T03:32:29;3.47;;;0.63;;
72601;SDS011;60644;55.858;37.390;2022-09-09T03:34:56;5.40;;;0.80;;
72601;SDS011;60644;55.858;37.390;2022-09-09T03:37:23;3.80;;;0.70;;
72601;SDS011;60644;55.858;37.390;2022-09-09T03:39:50;2.85;;;0.60;;
72601;SDS011;60644;55.858;37.390;2022-09-09T03:42:17;3.97;;;0.90;;
72601;SDS011;60644;55.858;37.390;2022-09-09T03:44:49;4.40;;;0.90;;
72601;SDS011;60644;55.858;37.390;2022-09-09T03:47:17;6.40;;;1.13;;
72601;SDS011;60644;55.858;37.390;2022-09-09T03:49:54;4.55;;;1.00;;
72601;SDS011;60644;55.858;37.390;2022-09-09T03:52:19;4.90;;;0.82;;
72601;SDS011;60644;55.858;37.390;2022-09-09T03:54:47;2.67;;;0.73;;
72601;SDS011;60644;55.858;37.390;2022-09-09T03:57:14;5.30;;;0.98;;
72601;SDS011;60644;55.858;37.390;2022-09-09T03:59:42;3.55;;;0.68;;
72601;SDS011;60644;55.858;37.390;2022-09-09T04:02:09;4.47;;;1.00;;
72601;SDS011;60644;55.858;37.390;2022-09-09T04:04:35;5.47;;;1.48;;
72601;SDS011;60644;55.858;37.390;2022-09-09T04:07:01;4.60;;;1.00;;
72601;SDS011;60644;55.858;37.390;2022-09-09T04:09:27;3.92;;;1.08;;
72601;SDS011;60644;55.858;37.390;2022-09-09T04:11:53;3.55;;;1.02;;
72601;SDS011;60644;55.858;37.390;2022-09-09T04:14:20;5.78;;;1.35;;
72601;SDS011;60644;55.858;37.390;2022-09-09T04:16:47;4.43;;;1.10;;
72601;SDS011;60644;55.858;37.390;2022-09-09T04:19:14;4.68;;;1.08;;
72601;SDS011;60644;55.858;37.390;2022-09-09T04:21:42;4.80;;;1.33;;
72601;SDS011;60644;55.858;37.390;2022-09-09T04:24:08;5.15;;;1.05;;
72601;SDS011;60644;55.858;37.390;2022-09-09T04:26:38;4.82;;;1.00;;
72601;SDS011;60644;55.858;37.390;2022-09-09T04:29:04;4.37;;;1.00;;
72601;SDS011;60644;55.858;37.390;2022-09-09T04:31:32;5.80;;;1.48;;
72601;SDS011;60644;55.858;37.390;2022-09-09T04:34:00;7.32;;;1.20;;
72601;SDS011;60644;55.858;37.390;2022-09-09T04:36:33;5.10;;;1.27;;
72601;SDS011;60644;55.858;37.390;2022-09-09T04:39:03;7.72;;;1.35;;
72601;SDS011;60644;55.858;37.390;2022-09-09T04:41:28;5.00;;;1.33;;
72601;SDS011;60644;55.858;37.390;2022-09-09T04:43:57;6.13;;;1.30;;
72601;SDS011;60644;55.858;37.390;2022-09-09T04:46:23;5.28;;;1.20;;
72601;SDS011;60644;55.858;37.390;2022-09-09T04:48:50;4.70;;;0.90;;
72601;SDS011;60644;55.858;37.390;2022-09-09T04:51:17;4.47;;;1.10;;
72601;SDS011;60644;55.858;37.390;2022-09-09T04:53:47;3.97;;;0.98;;
72601;SDS011;60644;55.858;37.390;2022-09-09T04:56:16;6.47;;;1.00;;
72601;SDS011;60644;55.858;37.390;2022-09-09T04:58:52;5.07;;;1.10;;
72601;SDS011;60644;55.858;37.390;2022-09-09T05:01:22;5.03;;;1.30;;
72601;SDS011;60644;55.858;37.390;2022-09-09T05:03:50;5.50;;;1.30;;
72601;SDS011;60644;55.858;37.390;2022-09-09T05:06:21;6.50;;;1.55;;
72601;SDS011;60644;55.858;37.390;2022-09-09T05:08:51;3.70;;;1.00;;
72601;SDS011;60644;55.858;37.390;2022-09-09T05:11:23;5.07;;;1.63;;
72601;SDS011;60644;55.858;37.390;2022-09-09T05:13:57;6.28;;;1.38;;
72601;SDS011;60644;55.858;37.390;2022-09-09T05:16:23;5.10;;;1.00;;
72601;SDS011;60644;55.858;37.390;2022-09-09T05:18:50;4.07;;;0.90;;
72601;SDS011;60644;55.858;37.390;2022-09-09T05:21:18;4.03;;;0.88;;
72601;SDS011;60644;55.858;37.390;2022-09-09T05:23:45;3.83;;;0.80;;
72601;SDS011;60644;55.858;37.390;2022-09-09T05:26:13;5.47;;;0.95;;
72601;SDS011;60644;55.858;37.390;2022-09-09T05:28:45;4.13;;;0.80;;
72601;SDS011;60644;55.858;37.390;2022-09-09T05:31:12;3.63;;;0.85;;
72601;SDS011;60644;55.858;37.390;2022-09-09T05:33:41;5.70;;;0.82;;
72601;SDS011;60644;55.858;37.390;2022-09-09T05:36:11;3.00;;;0.75;;
72601;SDS011;60644;55.858;37.390;2022-09-09T05:38:40;5.95;;;1.00;;
72601;SDS011;60644;55.858;37.390;2022-09-09T05:41:07;4.15;;;0.80;;
72601;SDS011;60644;55.858;37.390;2022-09-09T05:43:35;4.68;;;0.82;;
72601;SDS011;60644;55.858;37.390;2022-09-09T05:46:03;4.82;;;1.02;;
72601;SDS011;60644;55.858;37.390;2022-09-09T05:48:32;5.28;;;0.60;;
72601;SDS011;60644;55.858;37.390;2022-09-09T05:51:09;4.45;;;1.20;;
72601;SDS011;60644;55.858;37.390;2022-09-09T05:53:41;4.95;;;0.70;;
72601;SDS011;60644;55.858;37.390;2022-09-09T05:56:09;5.10;;;0.70;;
72601;SDS011;60644;55.858;37.390;2022-09-09T05:58:38;3.47;;;0.70;;
72601;SDS011;60644;55.858;37.390;2022-09-09T06:01:07;2.88;;;0.60;;
72601;SDS011;60644;55.858;37.390;2022-09-09T06:03:36;3.65;;;0.75;;
72601;SDS011;60644;55.858;37.390;2022-09-09T06:06:04;4.28;;;0.80;;
72601;SDS011;60644;55.858;37.390;2022-09-09T06:08:36;2.70;;;0.50;;
72601;SDS011;60644;55.858;37.390;2022-09-09T06:11:05;1.88;;;0.30;;
72601;SDS011;60644;55.858;37.390;2022-09-09T06:13:33;2.05;;;0.35;;
72601;SDS011;60644;55.858;37.390;2022-09-09T06:15:59;5.90;;;0.90;;
72601;SDS011;60644;55.858;37.390;2022-09-09T06:18:26;3.78;;;0.68;;
72601;SDS011;60644;55.858;37.390;2022-09-09T06:21:03;2.88;;;0.50;;
72601;SDS011;60644;55.858;37.390;2022-09-09T06:23:30;3.80;;;0.60;;
72601;SDS011;60644;55.858;37.390;2022-09-09T06:28:33;3.25;;;0.50;;
72601;SDS011;60644;55.858;37.390;2022-09-09T06:31:00;3.25;;;0.60;;
72601;SDS011;60644;55.858;37.390;2022-09-09T06:33:32;5.75;;;0.52;;
72601;SDS011;60644;55.858;37.390;2022-09-09T06:36:03;3.97;;;0.60;;
72601;SDS011;60644;55.858;37.390;2022-09-09T06:38:30;3.22;;;0.60;;
72601;SDS011;60644;55.858;37.390;2022-09-09T06:40:57;4.03;;;0.75;;
72601;SDS011;60644;55.858;37.390;2022-09-09T06:43:25;6.57;;;0.60;;
72601;SDS011;60644;55.858;37.390;2022-09-09T06:45:54;2.13;;;0.30;;
72601;SDS011;60644;55.858;37.390;2022-09-09T06:48:21;2.20;;;0.30;;
72601;SDS011;60644;55.858;37.390;2022-09-09T06:50:48;2.03;;;0.40;;
72601;SDS011;60644;55.858;37.390;2022-09-09T06:53:17;1.77;;;0.30;;
72601;SDS011;60644;55.858;37.390;2022-09-09T06:55:45;3.22;;;0.50;;
72601;SDS011;60644;55.858;37.390;2022-09-09T06:58:12;1.75;;;0.20;;
72601;SDS011;60644;55.858;37.390;2022-09-09T07:00:38;2.33;;;0.40;;
72601;SDS011;60644;55.858;37.390;2022-09-09T07:03:04;1.67;;;0.40;;
72601;SDS011;60644;55.858;37.390;2022-09-09T07:05:31;2.00;;;0.40;;
72601;SDS011;60644;55.858;37.390;2022-09-09T07:07:57;1.52;;;0.30;;
72601;SDS011;60644;55.858;37.390;2022-09-09T07:10:24;2.58;;;0.40;;
72601;SDS011;60644;55.858;37.390;2022-09-09T07:12:51;1.92;;;0.30;;
72601;SDS011;60644;55.858;37.390;2022-09-09T07:15:23;2.58;;;0.40;;
72601;SDS011;60644;55.858;37.390;2022-09-09T07:17:48;1.50;;;0.20;;
72601;SDS011;60644;55.858;37.390;2022-09-09T07:20:15;3.10;;;0.30;;
72601;SDS011;60644;55.858;37.390;2022-09-09T07:22:41;2.40;;;0.45;;
72601;SDS011;60644;55.858;37.390;2022-09-09T07:25:08;3.42;;;0.50;;
72601;SDS011;60644;55.858;37.390;2022-09-09T07:27:35;2.63;;;0.52;;
72601;SDS011;60644;55.858;37.390;2022-09-09T07:30:01;3.20;;;0.60;;
72601;SDS011;60644;55.858;37.390;2022-09-09T07:32:29;3.60;;;0.70;;
72601;SDS011;60644;55.858;37.390;2022-09-09T07:34:55;2.70;;;0.50;;
72601;SDS011;60644;55.858;37.390;2022-09-09T07:37:25;3.75;;;0.95;;
72601;SDS011;60644;55.858;37.390;2022-09-09T07:39:52;2.50;;;0.30;;
72601;SDS011;60644;55.858;37.390;2022-09-09T07:42:18;2.80;;;0.40;;
72601;SDS011;60644;55.858;37.390;2022-09-09T07:44:44;3.35;;;0.50;;
72601;SDS011;60644;55.858;37.390;2022-09-09T07:47:13;3.05;;;0.30;;
72601;SDS011;60644;55.858;37.390;2022-09-09T07:49:43;2.42;;;0.30;;
72601;SDS011;60644;55.858;37.390;2022-09-09T07:52:13;2.23;;;0.20;;
72601;SDS011;60644;55.858;37.390;2022-09-09T07:54:42;1.23;;;0.13;;
72601;SDS011;60644;55.858;37.390;2022-09-09T07:57:10;4.07;;;0.30;;
72601;SDS011;60644;55.858;37.390;2022-09-09T07:59:37;1.75;;;0.20;;
72601;SDS011;60644;55.858;37.390;2022-09-09T08:02:03;1.88;;;0.20;;
72601;SDS011;60644;55.858;37.390;2022-09-09T08:04:31;2.63;;;0.20;;
72601;SDS011;60644;55.858;37.390;2022-09-09T08:06:58;1.95;;;0.20;;
72601;SDS011;60644;55.858;37.390;2022-09-09T08:09:27;1.42;;;0.20;;
72601;SDS011;60644;55.858;37.390;2022-09-09T08:12:01;1.48;;;0.30;;
72601;SDS011;60644;55.858;37.390;2022-09-09T08:14:28;2.33;;;0.30;;
72601;SDS011;60644;55.858;37.390;2022-09-09T08:16:56;2.63;;;0.30;;
72601;SDS011;60644;55.858;37.390;2022-09-09T08:19:24;1.88;;;0.20;;
72601;SDS011;60644;55.858;37.390;2022-09-09T08:21:52;1.75;;;0.20;;
72601;SDS011;60644;55.858;37.390;2022-09-09T08:24:18;3.57;;;0.60;;
72601;SDS011;60644;55.858;37.390;2022-09-09T08:26:48;3.00;;;0.43;;
72601;SDS011;60644;55.858;37.390;2022-09-09T08:29:17;2.80;;;0.55;;
72601;SDS011;60644;55.858;37.390;2022-09-09T08:31:45;4.63;;;0.30;;
72601;SDS011;60644;55.858;37.390;2022-09-09T08:34:17;2.65;;;0.60;;
72601;SDS011;60644;55.858;37.390;2022-09-09T08:36:47;6.43;;;0.50;;
72601;SDS011;60644;55.858;37.390;2022-09-09T08:39:15;2.65;;;0.22;;
72601;SDS011;60644;55.858;37.390;2022-09-09T08:52:49;6.15;;;2.03;;
72601;SDS011;60644;55.858;37.390;2022-09-09T08:57:55;4.85;;;1.13;;
72601;SDS011;60644;55.858;37.390;2022-09-09T09:00:26;2.58;;;0.52;;
72601;SDS011;60644;55.858;37.390;2022-09-09T09:11:43;1.15;;;0.20;;
72601;SDS011;60644;55.858;37.390;2022-09-09T09:14:20;3.92;;;0.40;;
72601;SDS011;60644;55.858;37.390;2022-09-09T09:16:54;1.37;;;0.10;;
72601;SDS011;60644;55.858;37.390;2022-09-09T09:19:29;1.30;;;0.20;;
72601;SDS011;60644;55.858;37.390;2022-09-09T09:21:59;1.48;;;0.20;;
72601;SDS011;60644;55.858;37.390;2022-09-09T09:24:55;1.88;;;0.47;;
72601;SDS011;60644;55.858;37.390;2022-09-09T09:27:36;1.27;;;0.10;;
72601;SDS011;60644;55.858;37.390;2022-09-09T09:30:18;2.17;;;0.30;;
72601;SDS011;60644;55.858;37.390;2022-09-09T09:35:21;1.30;;;0.17;;
72601;SDS011;60644;55.858;37.390;2022-09-09T09:37:47;0.98;;;0.20;;
72601;SDS011;60644;55.858;37.390;2022-09-09T09:40:15;1.88;;;0.20;;
72601;SDS011;60644;55.858;37.390;2022-09-09T09:43:01;1.70;;;0.20;;
72601;SDS011;60644;55.858;37.390;2022-09-09T09:45:40;2.13;;;0.22;;
72601;SDS011;60644;55.858;37.390;2022-09-09T09:48:09;2.28;;;0.20;;
72601;SDS011;60644;55.858;37.390;2022-09-09T09:53:30;2.22;;;0.40;;
72601;SDS011;60644;55.858;37.390;2022-09-09T09:58:29;3.17;;;0.20;;
72601;SDS011;60644;55.858;37.390;2022-09-09T10:01:00;1.17;;;0.10;;
72601;SDS011;60644;55.858;37.390;2022-09-09T10:03:30;2.50;;;0.30;;
72601;SDS011;60644;55.858;37.390;2022-09-09T10:06:02;1.90;;;0.30;;
72601;SDS011;60644;55.858;37.390;2022-09-09T10:08:28;1.40;;;0.10;;
72601;SDS011;60644;55.858;37.390;2022-09-09T10:11:20;2.25;;;0.10;;
72601;SDS011;60644;55.858;37.390;2022-09-09T10:20:10;2.13;;;0.40;;
72601;SDS011;60644;55.858;37.390;2022-09-09T10:22:51;2.33;;;0.20;;
72601;SDS011;60644;55.858;37.390;2022-09-09T10:36:26;2.55;;;0.25;;
72601;SDS011;60644;55.858;37.390;2022-09-09T10:38:57;1.40;;;0.30;;
72601;SDS011;60644;55.858;37.390;2022-09-09T10:54:56;1.98;;;0.20;;
72601;SDS011;60644;55.858;37.390;2022-09-09T10:57:34;1.83;;;0.20;;
72601;SDS011;60644;55.858;37.390;2022-09-09T11:00:30;2.03;;;0.20;;
72601;SDS011;60644;55.858;37.390;2022-09-09T11:03:05;1.25;;;0.20;;
72601;SDS011;60644;55.858;37.390;2022-09-09T11:08:12;1.80;;;0.25;;
72601;SDS011;60644;55.858;37.390;2022-09-09T11:18:46;2.47;;;0.20;;
72601;SDS011;60644;55.858;37.390;2022-09-09T11:21:16;4.97;;;0.30;;
72601;SDS011;60644;55.858;37.390;2022-09-09T11:23:54;1.15;;;0.20;;
72601;SDS011;60644;55.858;37.390;2022-09-09T11:26:29;1.10;;;0.13;;
72601;SDS011;60644;55.858;37.390;2022-09-09T11:34:33;1.50;;;0.20;;
72601;SDS011;60644;55.858;37.390;2022-09-09T11:37:30;1.08;;;0.20;;
72601;SDS011;60644;55.858;37.390;2022-09-09T11:40:14;2.47;;;0.20;;
72601;SDS011;60644;55.858;37.390;2022-09-09T11:42:49;1.38;;;0.20;;
72601;SDS011;60644;55.858;37.390;2022-09-09T11:45:26;1.33;;;0.20;;
72601;SDS011;60644;55.858;37.390;2022-09-09T11:47:55;2.35;;;0.40;;
72601;SDS011;60644;55.858;37.390;2022-09-09T11:52:50;1.57;;;0.20;;
72601;SDS011;60644;55.858;37.390;2022-09-09T11:55:26;2.25;;;0.20;;
72601;SDS011;60644;55.858;37.390;2022-09-09T12:00:32;1.00;;;0.20;;
72601;SDS011;60644;55.858;37.390;2022-09-09T12:02:59;0.93;;;0.20;;
72601;SDS011;60644;55.858;37.390;2022-09-09T12:05:34;1.67;;;0.20;;
72601;SDS011;60644;55.858;37.390;2022-09-09T12:08:05;1.60;;;0.20;;
72601;SDS011;60644;55.858;37.390;2022-09-09T12:10:35;1.17;;;0.20;;
72601;SDS011;60644;55.858;37.390;2022-09-09T12:15:51;1.35;;;0.20;;
72601;SDS011;60644;55.858;37.390;2022-09-09T12:18:23;2.33;;;0.40;;
72601;SDS011;60644;55.858;37.390;2022-09-09T12:21:07;1.67;;;0.22;;
72601;SDS011;60644;55.858;37.390;2022-09-09T12:23:54;0.93;;;0.20;;
72601;SDS011;60644;55.858;37.390;2022-09-09T12:29:44;1.52;;;0.20;;
72601;SDS011;60644;55.858;37.390;2022-09-09T12:32:12;0.60;;;0.10;;
72601;SDS011;60644;55.858;37.390;2022-09-09T12:39:45;1.70;;;0.23;;
72601;SDS011;60644;55.858;37.390;2022-09-09T12:42:16;2.95;;;0.20;;
72601;SDS011;60644;55.858;37.390;2022-09-09T12:44:59;2.35;;;0.20;;
72601;SDS011;60644;55.858;37.390;2022-09-09T12:47:38;1.65;;;0.13;;
72601;SDS011;60644;55.858;37.390;2022-09-09T12:50:22;2.42;;;0.30;;
72601;SDS011;60644;55.858;37.390;2022-09-09T12:52:55;1.55;;;0.22;;
72601;SDS011;60644;55.858;37.390;2022-09-09T12:55:32;3.70;;;0.35;;
72601;SDS011;60644;55.858;37.390;2022-09-09T12:58:02;5.75;;;0.68;;
72601;SDS011;60644;55.858;37.390;2022-09-09T13:00:32;4.70;;;0.80;;
72601;SDS011;60644;55.858;37.390;2022-09-09T13:03:03;2.90;;;0.40;;
72601;SDS011;60644;55.858;37.390;2022-09-09T13:05:42;2.30;;;0.40;;
72601;SDS011;60644;55.858;37.390;2022-09-09T13:08:09;3.65;;;0.40;;
72601;SDS011;60644;55.858;37.390;2022-09-09T13:10:41;4.53;;;0.80;;
72601;SDS011;60644;55.858;37.390;2022-09-09T13:13:27;5.32;;;0.50;;
72601;SDS011;60644;55.858;37.390;2022-09-09T13:15:56;2.50;;;0.38;;
72601;SDS011;60644;55.858;37.390;2022-09-09T13:18:37;5.10;;;0.50;;
72601;SDS011;60644;55.858;37.390;2022-09-09T13:21:07;3.78;;;0.63;;
72601;SDS011;60644;55.858;37.390;2022-09-09T13:23:34;3.97;;;0.85;;
72601;SDS011;60644;55.858;37.390;2022-09-09T13:26:05;4.47;;;0.60;;
72601;SDS011;60644;55.858;37.390;2022-09-09T13:28:46;3.55;;;0.40;;
72601;SDS011;60644;55.858;37.390;2022-09-09T13:31:22;5.68;;;0.90;;
72601;SDS011;60644;55.858;37.390;2022-09-09T13:33:52;3.55;;;0.60;;
72601;SDS011;60644;55.858;37.390;2022-09-09T13:36:27;2.80;;;0.50;;
72601;SDS011;60644;55.858;37.390;2022-09-09T13:38:59;3.75;;;0.55;;
72601;SDS011;60644;55.858;37.390;2022-09-09T13:41:42;4.45;;;0.60;;
72601;SDS011;60644;55.858;37.390;2022-09-09T13:47:01;3.75;;;0.90;;
72601;SDS011;60644;55.858;37.390;2022-09-09T13:49:32;3.13;;;0.50;;
72601;SDS011;60644;55.858;37.390;2022-09-09T13:52:08;4.45;;;0.70;;
72601;SDS011;60644;55.858;37.390;2022-09-09T13:54:36;3.90;;;0.52;;
72601;SDS011;60644;55.858;37.390;2022-09-09T13:57:02;5.43;;;1.00;;
72601;SDS011;60644;55.858;37.390;2022-09-09T13:59:29;2.30;;;0.47;;
72601;SDS011;60644;55.858;37.390;2022-09-09T14:01:57;4.30;;;0.75;;
72601;SDS011;60644;55.858;37.390;2022-09-09T14:04:23;3.25;;;0.47;;
72601;SDS011;60644;55.858;37.390;2022-09-09T14:06:49;4.13;;;0.60;;
72601;SDS011;60644;55.858;37.390;2022-09-09T14:09:16;3.03;;;0.50;;
72601;SDS011;60644;55.858;37.390;2022-09-09T14:11:43;3.38;;;0.60;;
72601;SDS011;60644;55.858;37.390;2022-09-09T14:14:13;6.07;;;1.45;;
72601;SDS011;60644;55.858;37.390;2022-09-09T14:16:39;5.82;;;1.48;;
72601;SDS011;60644;55.858;37.390;2022-09-09T14:19:04;7.87;;;2.10;;
72601;SDS011;60644;55.858;37.390;2022-09-09T14:21:30;6.22;;;1.88;;
72601;SDS011;60644;55.858;37.390;2022-09-09T14:23:57;6.68;;;1.05;;
72601;SDS011;60644;55.858;37.390;2022-09-09T14:26:23;4.87;;;0.80;;
72601;SDS011;60644;55.858;37.390;2022-09-09T14:28:49;5.45;;;1.02;;
72601;SDS011;60644;55.858;37.390;2022-09-09T14:31:17;4.65;;;0.80;;
72601;SDS011;60644;55.858;37.390;2022-09-09T14:33:43;2.75;;;0.50;;
72601;SDS011;60644;55.858;37.390;2022-09-09T14:36:10;3.80;;;0.80;;
72601;SDS011;60644;55.858;37.390;2022-09-09T14:38:37;3.20;;;0.60;;
72601;SDS011;60644;55.858;37.390;2022-09-09T14:41:11;4.82;;;0.90;;
72601;SDS011;60644;55.858;37.390;2022-09-09T14:43:39;4.72;;;0.80;;
72601;SDS011;60644;55.858;37.390;2022-09-09T14:46:08;2.42;;;0.50;;
72601;SDS011;60644;55.858;37.390;2022-09-09T14:48:36;4.20;;;0.90;;
72601;SDS011;60644;55.858;37.390;2022-09-09T14:51:05;4.67;;;0.73;;
72601;SDS011;60644;55.858;37.390;2022-09-09T14:53:42;3.08;;;0.40;;
72601;SDS011;60644;55.858;37.390;2022-09-09T14:56:10;3.42;;;0.68;;
72601;SDS011;60644;55.858;37.390;2022-09-09T14:58:38;3.75;;;0.57;;
72601;SDS011;60644;55.858;37.390;2022-09-09T15:01:05;4.72;;;0.80;;
72601;SDS011;60644;55.858;37.390;2022-09-09T15:03:42;3.33;;;0.47;;
72601;SDS011;60644;55.858;37.390;2022-09-09T15:06:14;3.08;;;0.40;;
72601;SDS011;60644;55.858;37.390;2022-09-09T15:08:41;6.00;;;0.40;;
72601;SDS011;60644;55.858;37.390;2022-09-09T15:11:10;3.20;;;0.40;;
72601;SDS011;60644;55.858;37.390;2022-09-09T15:13:37;3.97;;;0.50;;
72601;SDS011;60644;55.858;37.390;2022-09-09T15:16:05;5.27;;;0.77;;
72601;SDS011;60644;55.858;37.390;2022-09-09T15:18:31;5.63;;;0.73;;
72601;SDS011;60644;55.858;37.390;2022-09-09T15:21:02;4.97;;;0.73;;
72601;SDS011;60644;55.858;37.390;2022-09-09T15:23:34;5.15;;;0.52;;
72601;SDS011;60644;55.858;37.390;2022-09-09T15:26:00;4.10;;;0.63;;
72601;SDS011;60644;55.858;37.390;2022-09-09T15:28:27;6.83;;;1.87;;
72601;SDS011;60644;55.858;37.390;2022-09-09T15:30:54;6.65;;;1.83;;
72601;SDS011;60644;55.858;37.390;2022-09-09T15:33:20;10.88;;;3.70;;
72601;SDS011;60644;55.858;37.390;2022-09-09T15:35:47;9.93;;;3.15;;
72601;SDS011;60644;55.858;37.390;2022-09-09T15:38:15;8.52;;;4.25;;
72601;SDS011;60644;55.858;37.390;2022-09-09T15:40:42;9.40;;;4.50;;
72601;SDS011;60644;55.858;37.390;2022-09-09T15:43:08;7.85;;;3.75;;
72601;SDS011;60644;55.858;37.390;2022-09-09T15:45:36;8.80;;;3.60;;
72601;SDS011;60644;55.858;37.390;2022-09-09T15:48:05;10.80;;;4.38;;
72601;SDS011;60644;55.858;37.390;2022-09-09T15:50:32;9.38;;;4.10;;
72601;SDS011;60644;55.858;37.390;2022-09-09T15:52:58;6.87;;;2.30;;
72601;SDS011;60644;55.858;37.390;2022-09-09T15:55:24;8.13;;;1.92;;
72601;SDS011;60644;55.858;37.390;2022-09-09T15:57:51;6.40;;;1.77;;
72601;SDS011;60644;55.858;37.390;2022-09-09T16:00:20;6.95;;;2.40;;
72601;SDS011;60644;55.858;37.390;2022-09-09T16:02:48;7.20;;;2.08;;
72601;SDS011;60644;55.858;37.390;2022-09-09T16:05:14;6.07;;;1.15;;
72601;SDS011;60644;55.858;37.390;2022-09-09T16:07:41;5.68;;;2.08;;
72601;SDS011;60644;55.858;37.390;2022-09-09T16:10:08;20.77;;;8.68;;
72601;SDS011;60644;55.858;37.390;2022-09-09T16:12:34;21.08;;;10.52;;
72601;SDS011;60644;55.858;37.390;2022-09-09T16:15:00;11.37;;;4.87;;
72601;SDS011;60644;55.858;37.390;2022-09-09T16:17:29;12.40;;;4.50;;
72601;SDS011;60644;55.858;37.390;2022-09-09T16:19:55;12.13;;;4.78;;
72601;SDS011;60644;55.858;37.390;2022-09-09T16:22:23;9.63;;;3.28;;
72601;SDS011;60644;55.858;37.390;2022-09-09T16:24:49;8.52;;;3.45;;
72601;SDS011;60644;55.858;37.390;2022-09-09T16:27:15;8.07;;;3.10;;
72601;SDS011;60644;55.858;37.390;2022-09-09T16:29:41;7.63;;;2.78;;
72601;SDS011;60644;55.858;37.390;2022-09-09T16:32:07;8.70;;;3.45;;
72601;SDS011;60644;55.858;37.390;2022-09-09T16:34:33;8.05;;;3.47;;
72601;SDS011;60644;55.858;37.390;2022-09-09T16:36:59;14.75;;;7.15;;
72601;SDS011;60644;55.858;37.390;2022-09-09T16:39:27;10.50;;;4.18;;
72601;SDS011;60644;55.858;37.390;2022-09-09T16:41:53;7.25;;;2.92;;
72601;SDS011;60644;55.858;37.390;2022-09-09T16:44:19;6.85;;;2.58;;
72601;SDS011;60644;55.858;37.390;2022-09-09T16:46:46;7.00;;;2.83;;
72601;SDS011;60644;55.858;37.390;2022-09-09T16:49:14;10.88;;;2.72;;
72601;SDS011;60644;55.858;37.390;2022-09-09T16:51:42;8.52;;;3.45;;
72601;SDS011;60644;55.858;37.390;2022-09-09T16:54:12;8.98;;;3.55;;
72601;SDS011;60644;55.858;37.390;2022-09-09T16:56:41;11.27;;;4.78;;
72601;SDS011;60644;55.858;37.390;2022-09-09T16:59:10;11.60;;;4.13;;
72601;SDS011;60644;55.858;37.390;2022-09-09T17:01:39;13.00;;;5.32;;
72601;SDS011;60644;55.858;37.390;2022-09-09T17:04:07;11.10;;;4.70;;
72601;SDS011;60644;55.858;37.390;2022-09-09T17:06:46;13.15;;;4.82;;
72601;SDS011;60644;55.858;37.390;2022-09-09T17:09:16;16.10;;;6.72;;
72601;SDS011;60644;55.858;37.390;2022-09-09T17:11:42;14.60;;;6.00;;
72601;SDS011;60644;55.858;37.390;2022-09-09T17:14:10;15.57;;;6.38;;
72601;SDS011;60644;55.858;37.390;2022-09-09T17:16:40;15.02;;;5.90;;
72601;SDS011;60644;55.858;37.390;2022-09-09T17:19:07;12.88;;;5.35;;
72601;SDS011;60644;55.858;37.390;2022-09-09T17:21:34;13.80;;;6.43;;
72601;SDS011;60644;55.858;37.390;2022-09-09T17:24:01;11.20;;;5.05;;